sensor_id;sensor_type;location;lat;lon;timestamp;P1;durP1;ratioP1;P2;durP2;ratioP2
44026;SDS011;29696;55.698;37.460;2023-02-17T00:00:30;8.43;;;6.30;;
44026;SDS011;29696;55.698;37.460;2023-02-17T00:02:57;10.73;;;7.03;;
44026;SDS011;29696;55.698;37.460;2023-02-17T00:05:24;8.83;;;7.93;;
44026;SDS011;29696;55.698;37.460;2023-02-17T00:07:51;9.00;;;6.53;;
44026;SDS011;29696;55.698;37.460;2023-02-17T00:10:19;8.37;;;5.80;;
44026;SDS011;29696;55.698;37.460;2023-02-17T00:12:45;9.40;;;7.13;;
44026;SDS011;29696;55.698;37.460;2023-02-17T00:15:11;9.10;;;6.07;;
44026;SDS011;29696;55.698;37.460;2023-02-17T00:17:38;8.93;;;5.90;;
44026;SDS011;29696;55.698;37.460;2023-02-17T00:20:04;9.93;;;6.20;;
44026;SDS011;29696;55.698;37.460;2023-02-17T00:22:31;9.50;;;6.07;;
44026;SDS011;29696;55.698;37.460;2023-02-17T00:24:58;10.10;;;6.53;;
44026;SDS011;29696;55.698;37.460;2023-02-17T00:27:24;8.73;;;6.80;;
44026;SDS011;29696;55.698;37.460;2023-02-17T00:29:50;12.97;;;7.47;;
44026;SDS011;29696;55.698;37.460;2023-02-17T00:32:17;8.63;;;5.90;;
44026;SDS011;29696;55.698;37.460;2023-02-17T00:34:43;9.47;;;6.60;;
44026;SDS011;29696;55.698;37.460;2023-02-17T00:37:09;7.13;;;6.03;;
44026;SDS011;29696;55.698;37.460;2023-02-17T00:39:36;7.77;;;5.43;;
44026;SDS011;29696;55.698;37.460;2023-02-17T00:42:02;10.23;;;6.53;;
44026;SDS011;29696;55.698;37.460;2023-02-17T00:44:28;10.37;;;7.20;;
44026;SDS011;29696;55.698;37.460;2023-02-17T00:46:55;11.90;;;6.83;;
44026;SDS011;29696;55.698;37.460;2023-02-17T00:49:22;10.57;;;6.40;;
44026;SDS011;29696;55.698;37.460;2023-02-17T00:51:50;8.27;;;6.93;;
44026;SDS011;29696;55.698;37.460;2023-02-17T00:54:17;10.03;;;7.80;;
44026;SDS011;29696;55.698;37.460;2023-02-17T00:56:44;10.03;;;6.97;;
44026;SDS011;29696;55.698;37.460;2023-02-17T00:59:11;8.73;;;6.20;;
44026;SDS011;29696;55.698;37.460;2023-02-17T01:01:38;11.43;;;6.30;;
44026;SDS011;29696;55.698;37.460;2023-02-17T01:04:05;9.80;;;6.67;;
44026;SDS011;29696;55.698;37.460;2023-02-17T01:06:33;8.30;;;6.33;;
44026;SDS011;29696;55.698;37.460;2023-02-17T01:09:03;8.77;;;6.93;;
44026;SDS011;29696;55.698;37.460;2023-02-17T01:11:31;10.00;;;7.37;;
44026;SDS011;29696;55.698;37.460;2023-02-17T01:14:00;9.77;;;7.20;;
44026;SDS011;29696;55.698;37.460;2023-02-17T01:16:28;10.87;;;7.13;;
44026;SDS011;29696;55.698;37.460;2023-02-17T01:19:06;8.93;;;7.13;;
44026;SDS011;29696;55.698;37.460;2023-02-17T01:21:36;10.13;;;6.70;;
44026;SDS011;29696;55.698;37.460;2023-02-17T01:24:03;9.90;;;6.53;;
44026;SDS011;29696;55.698;37.460;2023-02-17T01:26:32;14.30;;;7.70;;
44026;SDS011;29696;55.698;37.460;2023-02-17T01:29:00;11.60;;;7.70;;
44026;SDS011;29696;55.698;37.460;2023-02-17T01:31:28;8.07;;;5.73;;
44026;SDS011;29696;55.698;37.460;2023-02-17T01:33:55;12.90;;;7.87;;
44026;SDS011;29696;55.698;37.460;2023-02-17T01:36:23;7.80;;;6.43;;
44026;SDS011;29696;55.698;37.460;2023-02-17T01:38:49;11.10;;;5.90;;
44026;SDS011;29696;55.698;37.460;2023-02-17T01:41:18;9.73;;;7.10;;
44026;SDS011;29696;55.698;37.460;2023-02-17T01:46:51;6.90;;;5.77;;
44026;SDS011;29696;55.698;37.460;2023-02-17T01:54:58;11.57;;;5.87;;
44026;SDS011;29696;55.698;37.460;2023-02-17T01:57:30;9.17;;;6.23;;
44026;SDS011;29696;55.698;37.460;2023-02-17T02:00:00;7.57;;;5.50;;
44026;SDS011;29696;55.698;37.460;2023-02-17T02:02:42;9.30;;;6.43;;
44026;SDS011;29696;55.698;37.460;2023-02-17T02:05:13;6.00;;;5.40;;
44026;SDS011;29696;55.698;37.460;2023-02-17T02:07:43;10.93;;;6.83;;
44026;SDS011;29696;55.698;37.460;2023-02-17T02:10:12;8.67;;;6.87;;
44026;SDS011;29696;55.698;37.460;2023-02-17T02:12:41;7.00;;;4.87;;
44026;SDS011;29696;55.698;37.460;2023-02-17T02:15:12;8.00;;;5.67;;
44026;SDS011;29696;55.698;37.460;2023-02-17T02:34:22;11.67;;;7.60;;
44026;SDS011;29696;55.698;37.460;2023-02-17T02:36:55;9.98;;;7.80;;
44026;SDS011;29696;55.698;37.460;2023-02-17T02:39:31;9.23;;;6.78;;
44026;SDS011;29696;55.698;37.460;2023-02-17T02:44:33;9.47;;;6.33;;
44026;SDS011;29696;55.698;37.460;2023-02-17T02:47:29;9.57;;;6.70;;
44026;SDS011;29696;55.698;37.460;2023-02-17T02:50:57;10.53;;;7.27;;
44026;SDS011;29696;55.698;37.460;2023-02-17T02:58:36;10.03;;;6.43;;
44026;SDS011;29696;55.698;37.460;2023-02-17T03:01:22;8.77;;;5.93;;
44026;SDS011;29696;55.698;37.460;2023-02-17T03:07:17;12.87;;;7.27;;
44026;SDS011;29696;55.698;37.460;2023-02-17T03:09:50;10.57;;;8.00;;
44026;SDS011;29696;55.698;37.460;2023-02-17T03:12:19;8.17;;;7.17;;
44026;SDS011;29696;55.698;37.460;2023-02-17T03:14:49;8.57;;;7.30;;
44026;SDS011;29696;55.698;37.460;2023-02-17T03:17:17;9.87;;;6.50;;
44026;SDS011;29696;55.698;37.460;2023-02-17T03:19:47;13.03;;;8.70;;
44026;SDS011;29696;55.698;37.460;2023-02-17T03:22:27;9.40;;;6.93;;
44026;SDS011;29696;55.698;37.460;2023-02-17T03:24:58;13.13;;;8.73;;
44026;SDS011;29696;55.698;37.460;2023-02-17T03:27:26;10.60;;;8.53;;
44026;SDS011;29696;55.698;37.460;2023-02-17T03:29:53;11.60;;;8.63;;
44026;SDS011;29696;55.698;37.460;2023-02-17T03:32:19;10.50;;;7.97;;
44026;SDS011;29696;55.698;37.460;2023-02-17T03:34:46;13.33;;;8.23;;
44026;SDS011;29696;55.698;37.460;2023-02-17T03:37:12;10.07;;;7.17;;
44026;SDS011;29696;55.698;37.460;2023-02-17T03:39:39;11.73;;;7.97;;
44026;SDS011;29696;55.698;37.460;2023-02-17T03:42:05;11.50;;;8.07;;
44026;SDS011;29696;55.698;37.460;2023-02-17T03:44:31;9.93;;;7.70;;
44026;SDS011;29696;55.698;37.460;2023-02-17T03:46:58;13.20;;;8.30;;
44026;SDS011;29696;55.698;37.460;2023-02-17T03:49:24;12.60;;;8.07;;
44026;SDS011;29696;55.698;37.460;2023-02-17T03:51:50;12.13;;;8.00;;
44026;SDS011;29696;55.698;37.460;2023-02-17T03:54:17;11.67;;;8.50;;
44026;SDS011;29696;55.698;37.460;2023-02-17T03:56:43;9.63;;;7.70;;
44026;SDS011;29696;55.698;37.460;2023-02-17T03:59:09;10.67;;;7.50;;
44026;SDS011;29696;55.698;37.460;2023-02-17T04:01:36;11.77;;;8.00;;
44026;SDS011;29696;55.698;37.460;2023-02-17T04:04:02;9.63;;;8.63;;
44026;SDS011;29696;55.698;37.460;2023-02-17T04:06:28;11.90;;;8.67;;
44026;SDS011;29696;55.698;37.460;2023-02-17T04:08:55;10.97;;;8.53;;
44026;SDS011;29696;55.698;37.460;2023-02-17T04:11:21;14.10;;;9.20;;
44026;SDS011;29696;55.698;37.460;2023-02-17T04:13:47;14.30;;;9.37;;
44026;SDS011;29696;55.698;37.460;2023-02-17T04:16:14;10.37;;;7.60;;
44026;SDS011;29696;55.698;37.460;2023-02-17T04:18:40;16.13;;;9.67;;
44026;SDS011;29696;55.698;37.460;2023-02-17T04:21:07;15.87;;;9.40;;
44026;SDS011;29696;55.698;37.460;2023-02-17T04:23:34;14.03;;;9.63;;
44026;SDS011;29696;55.698;37.460;2023-02-17T04:26:02;11.90;;;8.93;;
44026;SDS011;29696;55.698;37.460;2023-02-17T04:28:29;15.67;;;9.97;;
44026;SDS011;29696;55.698;37.460;2023-02-17T04:30:57;14.70;;;10.40;;
44026;SDS011;29696;55.698;37.460;2023-02-17T04:33:24;17.17;;;9.77;;
44026;SDS011;29696;55.698;37.460;2023-02-17T04:35:51;11.73;;;7.93;;
44026;SDS011;29696;55.698;37.460;2023-02-17T04:38:27;14.47;;;9.20;;
44026;SDS011;29696;55.698;37.460;2023-02-17T04:40:55;13.77;;;8.67;;
44026;SDS011;29696;55.698;37.460;2023-02-17T04:43:22;17.80;;;10.47;;
44026;SDS011;29696;55.698;37.460;2023-02-17T04:45:49;13.63;;;9.30;;
44026;SDS011;29696;55.698;37.460;2023-02-17T04:48:16;18.03;;;12.27;;
44026;SDS011;29696;55.698;37.460;2023-02-17T04:50:43;18.40;;;10.87;;
44026;SDS011;29696;55.698;37.460;2023-02-17T04:53:09;19.73;;;13.10;;
44026;SDS011;29696;55.698;37.460;2023-02-17T04:55:36;17.83;;;11.30;;
44026;SDS011;29696;55.698;37.460;2023-02-17T04:58:02;17.73;;;11.53;;
44026;SDS011;29696;55.698;37.460;2023-02-17T05:00:29;17.90;;;11.30;;
44026;SDS011;29696;55.698;37.460;2023-02-17T05:02:55;22.60;;;12.67;;
44026;SDS011;29696;55.698;37.460;2023-02-17T05:05:22;16.57;;;11.37;;
44026;SDS011;29696;55.698;37.460;2023-02-17T05:07:48;19.50;;;13.03;;
44026;SDS011;29696;55.698;37.460;2023-02-17T05:10:15;14.47;;;11.07;;
44026;SDS011;29696;55.698;37.460;2023-02-17T05:12:42;17.40;;;11.73;;
44026;SDS011;29696;55.698;37.460;2023-02-17T05:15:09;17.83;;;11.87;;
44026;SDS011;29696;55.698;37.460;2023-02-17T05:17:36;29.07;;;13.60;;
44026;SDS011;29696;55.698;37.460;2023-02-17T05:20:04;18.67;;;11.53;;
44026;SDS011;29696;55.698;37.460;2023-02-17T05:22:31;24.20;;;12.33;;
44026;SDS011;29696;55.698;37.460;2023-02-17T05:24:57;19.60;;;11.53;;
44026;SDS011;29696;55.698;37.460;2023-02-17T05:27:23;16.20;;;12.07;;
44026;SDS011;29696;55.698;37.460;2023-02-17T05:29:50;18.60;;;10.73;;
44026;SDS011;29696;55.698;37.460;2023-02-17T05:32:16;19.70;;;10.40;;
44026;SDS011;29696;55.698;37.460;2023-02-17T05:34:43;18.87;;;12.23;;
44026;SDS011;29696;55.698;37.460;2023-02-17T05:37:09;18.43;;;10.97;;
44026;SDS011;29696;55.698;37.460;2023-02-17T05:39:36;14.33;;;9.97;;
44026;SDS011;29696;55.698;37.460;2023-02-17T05:42:02;18.93;;;13.77;;
44026;SDS011;29696;55.698;37.460;2023-02-17T05:44:29;13.93;;;9.80;;
44026;SDS011;29696;55.698;37.460;2023-02-17T05:46:55;14.90;;;9.50;;
44026;SDS011;29696;55.698;37.460;2023-02-17T05:49:21;11.97;;;7.67;;
44026;SDS011;29696;55.698;37.460;2023-02-17T05:51:48;12.90;;;8.17;;
44026;SDS011;29696;55.698;37.460;2023-02-17T05:54:14;13.17;;;8.93;;
44026;SDS011;29696;55.698;37.460;2023-02-17T05:56:40;10.90;;;6.87;;
44026;SDS011;29696;55.698;37.460;2023-02-17T05:59:07;12.53;;;7.53;;
44026;SDS011;29696;55.698;37.460;2023-02-17T06:01:33;9.60;;;6.53;;
44026;SDS011;29696;55.698;37.460;2023-02-17T06:03:59;9.87;;;7.20;;
44026;SDS011;29696;55.698;37.460;2023-02-17T06:06:26;10.33;;;8.60;;
44026;SDS011;29696;55.698;37.460;2023-02-17T06:08:52;11.13;;;8.77;;
44026;SDS011;29696;55.698;37.460;2023-02-17T06:11:18;11.83;;;8.53;;
44026;SDS011;29696;55.698;37.460;2023-02-17T06:13:44;14.27;;;9.57;;
44026;SDS011;29696;55.698;37.460;2023-02-17T06:16:11;13.27;;;8.43;;
44026;SDS011;29696;55.698;37.460;2023-02-17T06:18:37;19.33;;;10.17;;
44026;SDS011;29696;55.698;37.460;2023-02-17T06:21:03;12.50;;;8.77;;
44026;SDS011;29696;55.698;37.460;2023-02-17T06:23:30;10.60;;;8.03;;
44026;SDS011;29696;55.698;37.460;2023-02-17T06:25:56;15.33;;;10.30;;
44026;SDS011;29696;55.698;37.460;2023-02-17T06:28:23;10.07;;;8.47;;
44026;SDS011;29696;55.698;37.460;2023-02-17T06:30:49;12.53;;;8.90;;
44026;SDS011;29696;55.698;37.460;2023-02-17T06:33:15;13.00;;;8.90;;
44026;SDS011;29696;55.698;37.460;2023-02-17T06:35:42;11.73;;;8.50;;
44026;SDS011;29696;55.698;37.460;2023-02-17T06:38:13;16.67;;;8.67;;
44026;SDS011;29696;55.698;37.460;2023-02-17T06:40:39;13.47;;;8.07;;
44026;SDS011;29696;55.698;37.460;2023-02-17T06:43:06;19.80;;;8.23;;
44026;SDS011;29696;55.698;37.460;2023-02-17T06:45:32;11.10;;;7.87;;
44026;SDS011;29696;55.698;37.460;2023-02-17T06:47:58;16.07;;;8.77;;
44026;SDS011;29696;55.698;37.460;2023-02-17T06:50:25;12.27;;;7.90;;
44026;SDS011;29696;55.698;37.460;2023-02-17T06:52:51;11.00;;;6.43;;
44026;SDS011;29696;55.698;37.460;2023-02-17T06:55:17;11.67;;;7.53;;
44026;SDS011;29696;55.698;37.460;2023-02-17T06:57:44;9.97;;;7.27;;
44026;SDS011;29696;55.698;37.460;2023-02-17T07:00:10;17.13;;;9.00;;
44026;SDS011;29696;55.698;37.460;2023-02-17T07:02:37;9.57;;;6.40;;
44026;SDS011;29696;55.698;37.460;2023-02-17T07:05:04;9.60;;;5.97;;
44026;SDS011;29696;55.698;37.460;2023-02-17T07:07:31;11.80;;;7.60;;
44026;SDS011;29696;55.698;37.460;2023-02-17T07:09:58;11.03;;;6.80;;
44026;SDS011;29696;55.698;37.460;2023-02-17T07:12:25;8.97;;;7.20;;
44026;SDS011;29696;55.698;37.460;2023-02-17T07:14:53;12.60;;;7.00;;
44026;SDS011;29696;55.698;37.460;2023-02-17T07:17:20;13.00;;;7.73;;
44026;SDS011;29696;55.698;37.460;2023-02-17T07:19:46;10.63;;;8.03;;
44026;SDS011;29696;55.698;37.460;2023-02-17T07:22:12;17.37;;;7.20;;
44026;SDS011;29696;55.698;37.460;2023-02-17T07:24:38;14.70;;;8.37;;
44026;SDS011;29696;55.698;37.460;2023-02-17T07:27:05;14.70;;;7.77;;
44026;SDS011;29696;55.698;37.460;2023-02-17T07:29:33;14.30;;;9.17;;
44026;SDS011;29696;55.698;37.460;2023-02-17T07:32:00;11.87;;;8.63;;
44026;SDS011;29696;55.698;37.460;2023-02-17T07:34:26;16.23;;;9.60;;
44026;SDS011;29696;55.698;37.460;2023-02-17T07:36:52;14.67;;;7.43;;
44026;SDS011;29696;55.698;37.460;2023-02-17T07:39:19;15.20;;;9.07;;
44026;SDS011;29696;55.698;37.460;2023-02-17T07:41:45;14.23;;;7.93;;
44026;SDS011;29696;55.698;37.460;2023-02-17T07:44:14;11.70;;;8.30;;
44026;SDS011;29696;55.698;37.460;2023-02-17T07:46:40;10.97;;;8.10;;
44026;SDS011;29696;55.698;37.460;2023-02-17T07:49:06;9.97;;;6.63;;
44026;SDS011;29696;55.698;37.460;2023-02-17T07:51:33;11.03;;;7.83;;
44026;SDS011;29696;55.698;37.460;2023-02-17T07:53:59;17.20;;;8.30;;
44026;SDS011;29696;55.698;37.460;2023-02-17T07:56:26;12.47;;;8.13;;
44026;SDS011;29696;55.698;37.460;2023-02-17T07:58:54;13.83;;;8.13;;
44026;SDS011;29696;55.698;37.460;2023-02-17T08:01:22;11.20;;;7.43;;
44026;SDS011;29696;55.698;37.460;2023-02-17T08:03:49;12.63;;;8.13;;
44026;SDS011;29696;55.698;37.460;2023-02-17T08:06:18;12.27;;;9.13;;
44026;SDS011;29696;55.698;37.460;2023-02-17T08:08:46;14.03;;;7.90;;
44026;SDS011;29696;55.698;37.460;2023-02-17T08:11:32;13.87;;;9.30;;
44026;SDS011;29696;55.698;37.460;2023-02-17T08:14:22;13.63;;;8.67;;
44026;SDS011;29696;55.698;37.460;2023-02-17T08:16:50;12.60;;;7.73;;
44026;SDS011;29696;55.698;37.460;2023-02-17T08:19:17;10.20;;;7.50;;
44026;SDS011;29696;55.698;37.460;2023-02-17T08:21:43;13.10;;;8.80;;
44026;SDS011;29696;55.698;37.460;2023-02-17T08:24:10;20.23;;;10.33;;
44026;SDS011;29696;55.698;37.460;2023-02-17T08:26:37;9.90;;;7.03;;
44026;SDS011;29696;55.698;37.460;2023-02-17T08:29:04;11.37;;;8.67;;
44026;SDS011;29696;55.698;37.460;2023-02-17T08:31:31;10.30;;;7.17;;
44026;SDS011;29696;55.698;37.460;2023-02-17T08:34:00;14.83;;;9.10;;
44026;SDS011;29696;55.698;37.460;2023-02-17T08:36:28;11.30;;;8.00;;
44026;SDS011;29696;55.698;37.460;2023-02-17T08:38:54;13.07;;;7.97;;
44026;SDS011;29696;55.698;37.460;2023-02-17T08:41:26;12.83;;;8.13;;
44026;SDS011;29696;55.698;37.460;2023-02-17T08:43:54;13.13;;;8.83;;
44026;SDS011;29696;55.698;37.460;2023-02-17T08:46:22;10.37;;;7.10;;
44026;SDS011;29696;55.698;37.460;2023-02-17T08:48:49;14.03;;;9.30;;
44026;SDS011;29696;55.698;37.460;2023-02-17T08:51:18;14.20;;;9.77;;
44026;SDS011;29696;55.698;37.460;2023-02-17T08:53:49;15.80;;;9.20;;
44026;SDS011;29696;55.698;37.460;2023-02-17T08:56:16;15.30;;;10.33;;
44026;SDS011;29696;55.698;37.460;2023-02-17T08:58:42;29.87;;;11.13;;
44026;SDS011;29696;55.698;37.460;2023-02-17T09:01:08;18.00;;;10.30;;
44026;SDS011;29696;55.698;37.460;2023-02-17T09:03:35;17.50;;;10.60;;
44026;SDS011;29696;55.698;37.460;2023-02-17T09:06:02;18.97;;;10.70;;
44026;SDS011;29696;55.698;37.460;2023-02-17T09:08:30;15.80;;;8.73;;
44026;SDS011;29696;55.698;37.460;2023-02-17T09:10:57;17.17;;;9.33;;
44026;SDS011;29696;55.698;37.460;2023-02-17T09:13:23;17.80;;;11.13;;
44026;SDS011;29696;55.698;37.460;2023-02-17T09:15:52;15.30;;;9.00;;
44026;SDS011;29696;55.698;37.460;2023-02-17T09:18:19;17.70;;;9.47;;
44026;SDS011;29696;55.698;37.460;2023-02-17T09:20:46;15.23;;;9.37;;
44026;SDS011;29696;55.698;37.460;2023-02-17T09:23:13;15.97;;;9.20;;
44026;SDS011;29696;55.698;37.460;2023-02-17T09:25:40;13.60;;;9.63;;
44026;SDS011;29696;55.698;37.460;2023-02-17T09:28:07;16.73;;;10.53;;
44026;SDS011;29696;55.698;37.460;2023-02-17T09:30:33;16.53;;;11.33;;
44026;SDS011;29696;55.698;37.460;2023-02-17T09:33:01;12.17;;;8.80;;
44026;SDS011;29696;55.698;37.460;2023-02-17T09:35:30;16.03;;;9.23;;
44026;SDS011;29696;55.698;37.460;2023-02-17T09:37:57;14.07;;;10.20;;
44026;SDS011;29696;55.698;37.460;2023-02-17T09:40:31;12.60;;;9.43;;
44026;SDS011;29696;55.698;37.460;2023-02-17T09:43:08;14.50;;;9.40;;
44026;SDS011;29696;55.698;37.460;2023-02-17T09:45:39;12.53;;;9.07;;
44026;SDS011;29696;55.698;37.460;2023-02-17T09:48:08;23.77;;;11.43;;
44026;SDS011;29696;55.698;37.460;2023-02-17T09:50:40;12.97;;;8.17;;
44026;SDS011;29696;55.698;37.460;2023-02-17T09:53:19;17.30;;;10.30;;
44026;SDS011;29696;55.698;37.460;2023-02-17T09:55:54;15.93;;;9.23;;
44026;SDS011;29696;55.698;37.460;2023-02-17T09:58:40;14.40;;;11.00;;
44026;SDS011;29696;55.698;37.460;2023-02-17T10:01:15;13.33;;;9.23;;
44026;SDS011;29696;55.698;37.460;2023-02-17T10:03:47;21.63;;;11.90;;
44026;SDS011;29696;55.698;37.460;2023-02-17T10:12:26;19.40;;;11.10;;
44026;SDS011;29696;55.698;37.460;2023-02-17T10:15:08;12.98;;;8.75;;
44026;SDS011;29696;55.698;37.460;2023-02-17T10:17:47;13.73;;;9.73;;
44026;SDS011;29696;55.698;37.460;2023-02-17T10:20:51;14.83;;;10.17;;
44026;SDS011;29696;55.698;37.460;2023-02-17T10:23:24;32.93;;;20.87;;
44026;SDS011;29696;55.698;37.460;2023-02-17T10:32:26;15.10;;;10.57;;
44026;SDS011;29696;55.698;37.460;2023-02-17T10:38:33;14.20;;;9.07;;
44026;SDS011;29696;55.698;37.460;2023-02-17T10:41:47;14.17;;;9.23;;
44026;SDS011;29696;55.698;37.460;2023-02-17T10:47:35;14.20;;;9.73;;
44026;SDS011;29696;55.698;37.460;2023-02-17T10:50:05;17.17;;;13.10;;
44026;SDS011;29696;55.698;37.460;2023-02-17T10:52:42;17.50;;;11.10;;
44026;SDS011;29696;55.698;37.460;2023-02-17T10:58:23;20.23;;;11.33;;
44026;SDS011;29696;55.698;37.460;2023-02-17T11:00:54;16.67;;;10.30;;
44026;SDS011;29696;55.698;37.460;2023-02-17T11:03:23;16.53;;;11.30;;
44026;SDS011;29696;55.698;37.460;2023-02-17T11:05:55;16.10;;;11.10;;
44026;SDS011;29696;55.698;37.460;2023-02-17T11:11:47;19.97;;;12.23;;
44026;SDS011;29696;55.698;37.460;2023-02-17T11:14:20;15.57;;;11.53;;
44026;SDS011;29696;55.698;37.460;2023-02-17T11:16:53;14.87;;;11.20;;
44026;SDS011;29696;55.698;37.460;2023-02-17T11:27:26;16.20;;;10.87;;
44026;SDS011;29696;55.698;37.460;2023-02-17T11:29:52;19.60;;;10.13;;
44026;SDS011;29696;55.698;37.460;2023-02-17T11:32:28;18.30;;;10.60;;
44026;SDS011;29696;55.698;37.460;2023-02-17T11:34:57;17.87;;;10.63;;
44026;SDS011;29696;55.698;37.460;2023-02-17T11:37:25;21.17;;;13.03;;
44026;SDS011;29696;55.698;37.460;2023-02-17T11:39:53;15.87;;;10.53;;
44026;SDS011;29696;55.698;37.460;2023-02-17T11:42:24;19.17;;;12.50;;
44026;SDS011;29696;55.698;37.460;2023-02-17T11:44:53;16.83;;;10.97;;
44026;SDS011;29696;55.698;37.460;2023-02-17T11:53:28;17.50;;;12.57;;
44026;SDS011;29696;55.698;37.460;2023-02-17T11:56:18;22.93;;;10.57;;
44026;SDS011;29696;55.698;37.460;2023-02-17T12:08:51;23.30;;;12.53;;
44026;SDS011;29696;55.698;37.460;2023-02-17T12:11:59;20.10;;;12.00;;
44026;SDS011;29696;55.698;37.460;2023-02-17T12:25:18;18.57;;;12.70;;
44026;SDS011;29696;55.698;37.460;2023-02-17T12:31:01;17.97;;;13.37;;
44026;SDS011;29696;55.698;37.460;2023-02-17T12:33:57;19.17;;;13.50;;
44026;SDS011;29696;55.698;37.460;2023-02-17T12:36:35;23.67;;;15.03;;
44026;SDS011;29696;55.698;37.460;2023-02-17T12:39:11;31.60;;;15.07;;
44026;SDS011;29696;55.698;37.460;2023-02-17T12:41:45;23.60;;;15.37;;
44026;SDS011;29696;55.698;37.460;2023-02-17T12:44:19;20.87;;;13.93;;
44026;SDS011;29696;55.698;37.460;2023-02-17T12:46:52;23.60;;;13.40;;
44026;SDS011;29696;55.698;37.460;2023-02-17T12:49:24;26.47;;;14.43;;
44026;SDS011;29696;55.698;37.460;2023-02-17T12:51:58;21.93;;;13.63;;
44026;SDS011;29696;55.698;37.460;2023-02-17T12:54:55;25.63;;;16.13;;
44026;SDS011;29696;55.698;37.460;2023-02-17T12:57:43;21.93;;;13.17;;
44026;SDS011;29696;55.698;37.460;2023-02-17T13:00:38;18.30;;;13.20;;
44026;SDS011;29696;55.698;37.460;2023-02-17T13:03:09;22.63;;;14.13;;
44026;SDS011;29696;55.698;37.460;2023-02-17T13:08:51;21.80;;;13.50;;
44026;SDS011;29696;55.698;37.460;2023-02-17T13:11:27;24.33;;;13.87;;
44026;SDS011;29696;55.698;37.460;2023-02-17T13:13:55;29.97;;;15.97;;
44026;SDS011;29696;55.698;37.460;2023-02-17T13:16:22;28.80;;;14.90;;
44026;SDS011;29696;55.698;37.460;2023-02-17T13:18:49;27.77;;;15.03;;
44026;SDS011;29696;55.698;37.460;2023-02-17T13:24:14;22.63;;;13.30;;
44026;SDS011;29696;55.698;37.460;2023-02-17T13:26:55;22.30;;;13.13;;
44026;SDS011;29696;55.698;37.460;2023-02-17T13:32:11;25.20;;;13.87;;
44026;SDS011;29696;55.698;37.460;2023-02-17T13:34:39;21.97;;;14.63;;
44026;SDS011;29696;55.698;37.460;2023-02-17T13:48:59;24.53;;;13.20;;
44026;SDS011;29696;55.698;37.460;2023-02-17T13:51:31;20.20;;;14.57;;
44026;SDS011;29696;55.698;37.460;2023-02-17T13:54:05;25.00;;;14.67;;
44026;SDS011;29696;55.698;37.460;2023-02-17T13:59:09;29.17;;;12.70;;
44026;SDS011;29696;55.698;37.460;2023-02-17T14:01:43;18.10;;;11.80;;
44026;SDS011;29696;55.698;37.460;2023-02-17T14:04:21;20.70;;;12.77;;
44026;SDS011;29696;55.698;37.460;2023-02-17T14:06:57;21.00;;;13.33;;
44026;SDS011;29696;55.698;37.460;2023-02-17T14:12:21;16.10;;;11.33;;
44026;SDS011;29696;55.698;37.460;2023-02-17T14:14:48;16.27;;;10.90;;
44026;SDS011;29696;55.698;37.460;2023-02-17T14:17:28;19.37;;;11.77;;
44026;SDS011;29696;55.698;37.460;2023-02-17T14:19:57;19.57;;;12.00;;
44026;SDS011;29696;55.698;37.460;2023-02-17T14:22:27;16.80;;;11.53;;
44026;SDS011;29696;55.698;37.460;2023-02-17T14:24:59;17.37;;;11.47;;
44026;SDS011;29696;55.698;37.460;2023-02-17T14:27:44;15.83;;;10.97;;
44026;SDS011;29696;55.698;37.460;2023-02-17T14:30:25;20.03;;;10.37;;
44026;SDS011;29696;55.698;37.460;2023-02-17T14:36:03;15.67;;;10.30;;
44026;SDS011;29696;55.698;37.460;2023-02-17T14:38:33;20.33;;;11.97;;
44026;SDS011;29696;55.698;37.460;2023-02-17T14:41:09;16.53;;;10.67;;
44026;SDS011;29696;55.698;37.460;2023-02-17T14:43:35;18.07;;;12.73;;
44026;SDS011;29696;55.698;37.460;2023-02-17T14:46:02;19.43;;;12.13;;
44026;SDS011;29696;55.698;37.460;2023-02-17T14:48:28;13.90;;;10.33;;
44026;SDS011;29696;55.698;37.460;2023-02-17T14:50:55;25.60;;;11.87;;
44026;SDS011;29696;55.698;37.460;2023-02-17T14:53:29;16.83;;;11.37;;
44026;SDS011;29696;55.698;37.460;2023-02-17T14:56:02;14.00;;;9.63;;
44026;SDS011;29696;55.698;37.460;2023-02-17T14:58:49;14.53;;;10.43;;
44026;SDS011;29696;55.698;37.460;2023-02-17T15:01:18;16.10;;;9.13;;
44026;SDS011;29696;55.698;37.460;2023-02-17T15:03:46;18.30;;;11.37;;
44026;SDS011;29696;55.698;37.460;2023-02-17T15:06:13;15.80;;;9.63;;
44026;SDS011;29696;55.698;37.460;2023-02-17T15:08:52;20.00;;;12.07;;
44026;SDS011;29696;55.698;37.460;2023-02-17T15:11:40;14.80;;;10.73;;
44026;SDS011;29696;55.698;37.460;2023-02-17T15:14:10;20.20;;;11.37;;
44026;SDS011;29696;55.698;37.460;2023-02-17T15:16:39;19.90;;;9.70;;
44026;SDS011;29696;55.698;37.460;2023-02-17T15:19:06;18.03;;;11.10;;
44026;SDS011;29696;55.698;37.460;2023-02-17T15:21:36;19.57;;;11.10;;
44026;SDS011;29696;55.698;37.460;2023-02-17T15:29:27;21.53;;;11.27;;
44026;SDS011;29696;55.698;37.460;2023-02-17T15:31:55;21.10;;;11.60;;
44026;SDS011;29696;55.698;37.460;2023-02-17T15:34:28;24.27;;;12.67;;
44026;SDS011;29696;55.698;37.460;2023-02-17T15:36:57;17.93;;;10.23;;
44026;SDS011;29696;55.698;37.460;2023-02-17T15:39:25;16.97;;;10.73;;
44026;SDS011;29696;55.698;37.460;2023-02-17T15:41:52;19.90;;;11.63;;
44026;SDS011;29696;55.698;37.460;2023-02-17T15:44:25;19.20;;;11.77;;
44026;SDS011;29696;55.698;37.460;2023-02-17T15:46:56;20.77;;;11.77;;
44026;SDS011;29696;55.698;37.460;2023-02-17T15:49:23;17.57;;;11.27;;
44026;SDS011;29696;55.698;37.460;2023-02-17T15:51:49;17.73;;;12.03;;
44026;SDS011;29696;55.698;37.460;2023-02-17T15:54:15;18.37;;;13.60;;
44026;SDS011;29696;55.698;37.460;2023-02-17T15:56:45;20.20;;;13.07;;
44026;SDS011;29696;55.698;37.460;2023-02-17T15:59:17;21.63;;;12.60;;
44026;SDS011;29696;55.698;37.460;2023-02-17T16:01:51;22.43;;;15.20;;
44026;SDS011;29696;55.698;37.460;2023-02-17T16:04:20;24.17;;;14.83;;
44026;SDS011;29696;55.698;37.460;2023-02-17T16:06:47;22.43;;;12.90;;
44026;SDS011;29696;55.698;37.460;2023-02-17T16:09:14;20.87;;;12.03;;
44026;SDS011;29696;55.698;37.460;2023-02-17T16:11:46;18.70;;;12.00;;
44026;SDS011;29696;55.698;37.460;2023-02-17T16:14:25;26.43;;;12.33;;
44026;SDS011;29696;55.698;37.460;2023-02-17T16:16:57;20.43;;;14.57;;
44026;SDS011;29696;55.698;37.460;2023-02-17T16:19:24;22.93;;;11.97;;
44026;SDS011;29696;55.698;37.460;2023-02-17T16:21:50;20.20;;;12.10;;
44026;SDS011;29696;55.698;37.460;2023-02-17T16:24:17;17.47;;;11.10;;
44026;SDS011;29696;55.698;37.460;2023-02-17T16:26:43;24.00;;;13.03;;
44026;SDS011;29696;55.698;37.460;2023-02-17T16:29:14;21.57;;;13.80;;
44026;SDS011;29696;55.698;37.460;2023-02-17T16:31:42;26.53;;;14.33;;
44026;SDS011;29696;55.698;37.460;2023-02-17T16:34:13;22.03;;;14.57;;
44026;SDS011;29696;55.698;37.460;2023-02-17T16:36:46;29.00;;;15.90;;
44026;SDS011;29696;55.698;37.460;2023-02-17T16:39:15;32.03;;;16.80;;
44026;SDS011;29696;55.698;37.460;2023-02-17T16:41:42;24.70;;;14.80;;
44026;SDS011;29696;55.698;37.460;2023-02-17T16:44:10;24.27;;;15.30;;
44026;SDS011;29696;55.698;37.460;2023-02-17T16:46:46;21.73;;;14.60;;
44026;SDS011;29696;55.698;37.460;2023-02-17T16:49:21;27.93;;;15.30;;